createdAt,value
2023-04-18T00:00:01.563Z,36.98
2023-04-18T00:00:12.592Z,36.98
2023-04-18T00:00:23.596Z,36.98
2023-04-18T00:00:34.590Z,37.07
2023-04-18T00:00:45.571Z,36.98
2023-04-18T00:00:56.569Z,36.98
2023-04-18T00:01:07.544Z,36.98
2023-04-18T00:01:18.542Z,36.98
2023-04-18T00:01:29.633Z,36.98
2023-04-18T00:01:41.619Z,36.87
2023-04-18T00:01:53.677Z,36.87
2023-04-18T00:02:04.670Z,36.87
2023-04-18T00:02:16.630Z,36.98
2023-04-18T00:02:27.648Z,36.98
2023-04-18T00:02:38.719Z,36.98
2023-04-18T00:02:49.758Z,36.98
2023-04-18T00:03:04.190Z,36.98
2023-04-18T00:03:13.841Z,36.98
2023-04-18T00:03:24.800Z,36.98
2023-04-18T00:03:36.889Z,36.98
2023-04-18T00:03:47.775Z,36.98
2023-04-18T00:03:58.718Z,36.98
2023-04-18T00:04:10.824Z,36.98
2023-04-18T00:04:22.082Z,36.87
2023-04-18T00:04:32.575Z,36.87
2023-04-18T00:04:43.662Z,36.87
2023-04-18T00:04:54.709Z,36.98
2023-04-18T00:05:05.631Z,36.87
2023-04-18T00:05:16.659Z,36.87
2023-04-18T00:05:28.618Z,36.87
2023-04-18T00:05:40.593Z,36.87
2023-04-18T00:05:51.589Z,37.07
2023-04-18T00:06:02.566Z,37.07
2023-04-18T00:06:13.583Z,36.98
2023-04-18T00:06:24.582Z,36.98
2023-04-18T00:06:35.570Z,36.98
2023-04-18T00:06:46.554Z,36.98
2023-04-18T00:06:57.583Z,36.98
2023-04-18T00:07:08.576Z,36.98
2023-04-18T00:07:19.584Z,37.07
2023-04-18T00:07:30.568Z,37.07
2023-04-18T00:07:41.553Z,37.07
2023-04-18T00:07:52.681Z,37.07
2023-04-18T00:08:04.593Z,37.07
2023-04-18T00:08:15.595Z,37.07
2023-04-18T00:08:26.573Z,36.98
2023-04-18T00:08:37.558Z,36.98
2023-04-18T00:08:48.577Z,36.98
2023-04-18T00:08:59.659Z,36.98
2023-04-18T00:09:10.608Z,36.98
2023-04-18T00:09:22.716Z,36.87
2023-04-18T00:09:33.616Z,36.87
2023-04-18T00:09:45.633Z,36.87
2023-04-18T00:09:57.605Z,36.87
2023-04-18T00:10:08.591Z,36.98
2023-04-18T00:10:19.589Z,36.87
2023-04-18T00:10:30.577Z,36.98
2023-04-18T00:10:41.568Z,36.98
2023-04-18T00:10:52.558Z,36.98
2023-04-18T00:11:03.557Z,36.98
2023-04-18T00:11:14.628Z,36.98
2023-04-18T00:11:26.601Z,36.98
2023-04-18T00:11:37.580Z,36.98
2023-04-18T00:11:48.587Z,36.98
2023-04-18T00:11:59.551Z,36.98
2023-04-18T00:12:10.645Z,36.98
2023-04-18T00:12:22.593Z,36.98
2023-04-18T00:12:33.605Z,36.98
2023-04-18T00:12:44.600Z,36.98
2023-04-18T00:12:55.603Z,36.98
2023-04-18T00:13:06.591Z,36.98
2023-04-18T00:13:17.606Z,36.98
2023-04-18T00:13:28.608Z,36.98
2023-04-18T00:13:39.602Z,37.07
2023-04-18T00:13:50.624Z,37.07
2023-04-18T00:14:01.617Z,37.07
2023-04-18T00:14:13.693Z,37.07
2023-04-18T00:14:25.595Z,36.98
2023-04-18T00:14:36.585Z,37.07
2023-04-18T00:14:47.590Z,37.07
2023-04-18T00:14:58.587Z,37.07
2023-04-18T00:15:09.605Z,37.07
2023-04-18T00:15:20.609Z,37.07
2023-04-18T00:15:31.595Z,37.07
2023-04-18T00:15:42.593Z,37.07
2023-04-18T00:15:53.593Z,37.07
2023-04-18T00:16:04.584Z,37.18
2023-04-18T00:16:15.616Z,37.18
2023-04-18T00:16:26.709Z,37.07
2023-04-18T00:16:38.638Z,37.07
2023-04-18T00:16:49.604Z,37.07
2023-04-18T00:17:01.631Z,37.07
2023-04-18T00:17:12.608Z,37.07
2023-04-18T00:17:23.646Z,37.07
2023-04-18T00:17:35.671Z,37.07
2023-04-18T00:17:47.601Z,37.07
2023-04-18T00:17:58.626Z,37.07
2023-04-18T00:18:10.606Z,37.07
2023-04-18T00:18:21.585Z,37.07
2023-04-18T00:18:32.583Z,37.07
2023-04-18T00:18:43.595Z,37.07
2023-04-18T00:18:54.593Z,37.07
2023-04-18T00:19:05.587Z,37.07
2023-04-18T00:19:16.595Z,37.07
2023-04-18T00:19:27.580Z,37.07
2023-04-18T00:19:38.583Z,37.07
2023-04-18T00:19:49.566Z,37.07
2023-04-18T00:20:00.578Z,37.07
2023-04-18T00:20:11.562Z,37.07
2023-04-18T00:20:22.562Z,37.18
2023-04-18T00:20:33.636Z,37.07
2023-04-18T00:20:45.615Z,37.07
2023-04-18T00:20:56.609Z,37.07
2023-04-18T00:21:07.601Z,37.07
2023-04-18T00:21:18.605Z,37.07
2023-04-18T00:21:29.599Z,37.07
2023-04-18T00:21:40.583Z,37.07
2023-04-18T00:21:51.586Z,37.18
2023-04-18T00:22:02.583Z,37.18
2023-04-18T00:22:13.588Z,37.18
2023-04-18T00:22:24.579Z,37.07
2023-04-18T00:22:35.566Z,37.07
2023-04-18T00:22:46.725Z,37.07
2023-04-18T00:22:57.581Z,37.07
2023-04-18T00:23:08.586Z,37.27
2023-04-18T00:23:19.596Z,37.27
2023-04-18T00:23:30.586Z,37.27
2023-04-18T00:23:41.574Z,37.27
2023-04-18T00:23:52.567Z,37.27
2023-04-18T00:24:03.549Z,37.27
2023-04-18T00:24:14.854Z,37.18
2023-04-18T00:24:26.618Z,37.18
2023-04-18T00:24:38.577Z,37.07
2023-04-18T00:24:49.570Z,37.07
2023-04-18T00:25:00.571Z,37.07
2023-04-18T00:25:11.593Z,37.07
2023-04-18T00:25:22.585Z,37.07
2023-04-18T00:25:33.589Z,37.07
2023-04-18T00:25:44.605Z,37.07
2023-04-18T00:25:55.596Z,37.18
2023-04-18T00:26:06.590Z,37.07
2023-04-18T00:26:17.592Z,37.07
2023-04-18T00:26:28.586Z,37.07
2023-04-18T00:26:39.568Z,37.07
2023-04-18T00:26:50.562Z,37.18
2023-04-18T00:27:01.549Z,37.18
2023-04-18T00:27:12.649Z,37.18
2023-04-18T00:27:24.619Z,37.18
2023-04-18T00:27:36.577Z,37.07
2023-04-18T00:27:47.560Z,37.07
2023-04-18T00:27:58.559Z,37.07
2023-04-18T00:28:09.557Z,37.07
2023-04-18T00:28:20.645Z,37.07
2023-04-18T00:28:32.600Z,37.07
2023-04-18T00:28:43.609Z,37.07
2023-04-18T00:28:54.606Z,37.07
2023-04-18T00:29:05.589Z,37.18
2023-04-18T00:29:16.580Z,37.18
2023-04-18T00:29:27.576Z,37.18
2023-04-18T00:29:38.596Z,37.07
2023-04-18T00:29:49.607Z,37.07
2023-04-18T00:30:00.600Z,37.07
2023-04-18T00:30:11.610Z,37.07
2023-04-18T00:30:22.614Z,37.07
2023-04-18T00:30:34.624Z,37.18
2023-04-18T00:30:46.603Z,37.18
2023-04-18T00:30:58.640Z,37.07
2023-04-18T00:31:09.645Z,37.07
2023-04-18T00:31:20.620Z,37.18
2023-04-18T00:31:32.590Z,37.07
2023-04-18T00:31:43.590Z,37.07
2023-04-18T00:31:54.573Z,37.07
2023-04-18T00:32:05.591Z,37.07
2023-04-18T00:32:16.589Z,37.07
2023-04-18T00:32:27.633Z,37.07
2023-04-18T00:32:38.612Z,37.07
2023-04-18T00:32:49.645Z,37.07
2023-04-18T00:33:01.683Z,37.07
2023-04-18T00:33:12.603Z,37.18
2023-04-18T00:33:23.629Z,37.07
2023-04-18T00:33:35.586Z,37.18
2023-04-18T00:33:46.589Z,37.07
2023-04-18T00:33:57.571Z,37.07
2023-04-18T00:34:08.565Z,37.07
2023-04-18T00:34:19.565Z,37.18
2023-04-18T00:34:30.570Z,37.18
2023-04-18T00:34:41.561Z,37.18
2023-04-18T00:34:52.656Z,37.18
2023-04-18T00:35:04.606Z,37.27
2023-04-18T00:35:16.605Z,37.18
2023-04-18T00:35:27.603Z,37.18
2023-04-18T00:35:38.590Z,37.27
2023-04-18T00:35:49.579Z,37.27
2023-04-18T00:36:01.587Z,37.27
2023-04-18T00:36:12.575Z,37.27
2023-04-18T00:36:23.645Z,37.18
2023-04-18T00:36:34.638Z,37.07
2023-04-18T00:36:46.615Z,37.07
2023-04-18T00:36:57.593Z,37.07
2023-04-18T00:37:08.591Z,37.07
2023-04-18T00:37:19.634Z,37.07
2023-04-18T00:37:31.589Z,37.07
2023-04-18T00:37:42.599Z,37.07
2023-04-18T00:37:53.614Z,37.07
2023-04-18T00:38:04.612Z,37.07
2023-04-18T00:38:15.614Z,37.07
2023-04-18T00:38:26.598Z,37.07
2023-04-18T00:38:37.587Z,37.18
2023-04-18T00:38:48.582Z,37.18
2023-04-18T00:38:59.581Z,37.18
2023-04-18T00:39:10.580Z,37.18
2023-04-18T00:39:21.609Z,37.18
2023-04-18T00:39:32.608Z,37.18
2023-04-18T00:39:43.599Z,37.18
2023-04-18T00:39:54.594Z,37.18
2023-04-18T00:40:05.620Z,37.07
2023-04-18T00:40:17.610Z,37.07
2023-04-18T00:40:28.610Z,37.07
2023-04-18T00:40:39.600Z,37.07
2023-04-18T00:40:50.613Z,37.18
2023-04-18T00:41:02.628Z,37.18
2023-04-18T00:41:13.610Z,37.18
2023-04-18T00:41:24.603Z,37.18
2023-04-18T00:41:35.593Z,37.07
2023-04-18T00:41:46.576Z,37.07
2023-04-18T00:41:57.568Z,37.07
2023-04-18T00:42:08.547Z,37.07
2023-04-18T00:42:19.560Z,37.07
2023-04-18T00:42:30.647Z,37.07
2023-04-18T00:42:42.605Z,37.07
2023-04-18T00:42:53.596Z,37.07
2023-04-18T00:43:04.597Z,37.07
2023-04-18T00:43:15.602Z,37.07
2023-04-18T00:43:26.582Z,37.07
2023-04-18T00:43:37.570Z,37.07
2023-04-18T00:43:48.575Z,37.07
2023-04-18T00:43:59.562Z,37.07
2023-04-18T00:44:10.572Z,37.07
2023-04-18T00:44:21.570Z,37.07
2023-04-18T00:44:32.559Z,37.07
2023-04-18T00:44:43.576Z,37.07
2023-04-18T00:44:54.565Z,37.07
2023-04-18T00:45:05.670Z,37.07
2023-04-18T00:45:17.640Z,37.18
2023-04-18T00:45:29.612Z,37.18
2023-04-18T00:45:40.595Z,37.07
2023-04-18T00:45:51.601Z,37.07
2023-04-18T00:46:02.651Z,37.07
2023-04-18T00:46:14.634Z,37.07
2023-04-18T00:46:26.626Z,37.07
2023-04-18T00:46:38.645Z,37.07
2023-04-18T00:46:50.629Z,37.18
2023-04-18T00:47:02.641Z,37.18
2023-04-18T00:47:14.590Z,37.18
2023-04-18T00:47:25.591Z,37.18
2023-04-18T00:47:36.695Z,37.07
2023-04-18T00:47:47.665Z,37.07
2023-04-18T00:47:58.594Z,37.07
2023-04-18T00:48:09.616Z,37.18
2023-04-18T00:48:21.573Z,37.18
2023-04-18T00:48:32.553Z,37.18
2023-04-18T00:48:43.639Z,37.18
2023-04-18T00:48:55.600Z,37.18
2023-04-18T00:49:06.613Z,37.27
2023-04-18T00:49:17.609Z,37.27
2023-04-18T00:49:28.580Z,37.27
2023-04-18T00:49:39.594Z,37.18
2023-04-18T00:49:50.598Z,37.18
2023-04-18T00:50:01.605Z,37.18
2023-04-18T00:50:13.569Z,37.18
2023-04-18T00:50:24.563Z,37.18
2023-04-18T00:50:35.592Z,37.18
2023-04-18T00:50:46.607Z,37.27
2023-04-18T00:50:57.592Z,37.18
2023-04-18T00:51:08.582Z,37.07
2023-04-18T00:51:19.569Z,37.07
2023-04-18T00:51:30.557Z,37.07
2023-04-18T00:51:41.552Z,37.07
2023-04-18T00:51:52.546Z,37.07
2023-04-18T00:52:03.642Z,37.07
2023-04-18T00:52:15.600Z,37.07
2023-04-18T00:52:26.588Z,37.07
2023-04-18T00:52:37.591Z,37.18
2023-04-18T00:52:48.603Z,37.07
2023-04-18T00:52:59.596Z,37.07
2023-04-18T00:53:10.578Z,37.07
2023-04-18T00:53:21.572Z,37.07
2023-04-18T00:53:32.586Z,37.07
2023-04-18T00:53:43.571Z,37.07
2023-04-18T00:53:54.576Z,37.18
2023-04-18T00:54:06.284Z,37.07
2023-04-18T00:54:17.582Z,37.07
2023-04-18T00:54:28.562Z,37.07
2023-04-18T00:54:39.559Z,37.07
2023-04-18T00:54:50.545Z,37.07
2023-04-18T00:55:01.654Z,37.07
2023-04-18T00:55:13.596Z,37.07
2023-04-18T00:55:24.594Z,37.07
2023-04-18T00:55:35.576Z,37.07
2023-04-18T00:55:46.611Z,37.07
2023-04-18T00:55:57.598Z,37.07
2023-04-18T00:56:08.588Z,37.07
2023-04-18T00:56:19.612Z,37.18
2023-04-18T00:56:30.646Z,37.07
2023-04-18T00:56:42.621Z,37.18
2023-04-18T00:56:53.606Z,37.07
2023-04-18T00:57:04.614Z,37.18
2023-04-18T00:57:15.615Z,37.18
2023-04-18T00:57:26.610Z,37.18
2023-04-18T00:57:38.635Z,37.18
2023-04-18T00:57:50.582Z,37.18
2023-04-18T00:58:01.581Z,37.07
2023-04-18T00:58:12.571Z,37.07
2023-04-18T00:58:23.566Z,37.07
2023-04-18T00:58:34.550Z,37.07
2023-04-18T00:58:45.587Z,37.07
2023-04-18T00:58:56.595Z,37.07
2023-04-18T00:59:07.590Z,37.07
2023-04-18T00:59:18.603Z,37.07
2023-04-18T00:59:29.594Z,37.07
2023-04-18T00:59:40.611Z,37.07
2023-04-18T00:59:52.593Z,37.07
2023-04-18T01:00:03.638Z,37.07
2023-04-18T01:00:15.604Z,37.07
2023-04-18T01:00:26.618Z,37.07
2023-04-18T01:00:38.588Z,37.07
2023-04-18T01:00:49.571Z,37.07
2023-04-18T01:01:00.572Z,37.07
2023-04-18T01:01:11.598Z,37.07
2023-04-18T01:01:22.692Z,37.07
2023-04-18T01:01:33.750Z,37.07
2023-04-18T01:01:44.683Z,37.07
2023-04-18T01:01:56.772Z,37.07
2023-04-18T01:02:07.664Z,37.07
2023-04-18T01:02:18.677Z,37.07
2023-04-18T01:02:29.696Z,37.07
2023-04-18T01:02:40.720Z,37.07
2023-04-18T01:02:52.668Z,37.07
2023-04-18T01:03:04.726Z,37.07
2023-04-18T01:03:15.696Z,37.07
2023-04-18T01:03:27.773Z,37.07
2023-04-18T01:03:39.861Z,37.07
2023-04-18T01:03:50.734Z,37.07
2023-04-18T01:04:01.727Z,37.07
2023-04-18T01:04:13.960Z,37.07
2023-04-18T01:04:25.668Z,37.07
2023-04-18T01:04:37.704Z,37.07
2023-04-18T01:04:49.577Z,37.07
2023-04-18T01:05:00.570Z,37.07
2023-04-18T01:05:11.566Z,37.07
2023-04-18T01:05:22.554Z,37.07
2023-04-18T01:05:33.550Z,37.07
2023-04-18T01:05:44.635Z,37.07
2023-04-18T01:05:56.584Z,37.07
2023-04-18T01:06:07.582Z,37.07
2023-04-18T01:06:18.614Z,37.07
2023-04-18T01:06:30.611Z,37.07
2023-04-18T01:06:41.604Z,37.07
2023-04-18T01:06:52.618Z,37.07
2023-04-18T01:07:04.596Z,37.07
2023-04-18T01:07:16.581Z,37.07
2023-04-18T01:07:27.577Z,37.07
2023-04-18T01:07:38.564Z,37.07
2023-04-18T01:07:49.560Z,37.07
2023-04-18T01:08:00.648Z,37.07
2023-04-18T01:08:12.617Z,37.18
2023-04-18T01:08:24.575Z,37.27
2023-04-18T01:08:35.565Z,37.38
2023-04-18T01:08:46.558Z,37.38
2023-04-18T01:08:57.583Z,37.27
2023-04-18T01:09:08.635Z,37.18
2023-04-18T01:09:20.603Z,37.18
2023-04-18T01:09:31.595Z,37.18
2023-04-18T01:09:42.590Z,37.18
2023-04-18T01:09:53.584Z,37.18
2023-04-18T01:10:04.581Z,37.18
2023-04-18T01:10:15.567Z,37.18
2023-04-18T01:10:26.560Z,37.18
2023-04-18T01:10:37.651Z,37.18
2023-04-18T01:10:49.610Z,37.18
2023-04-18T01:11:00.600Z,37.18
2023-04-18T01:11:11.593Z,37.18
2023-04-18T01:11:22.588Z,37.18
2023-04-18T01:11:33.578Z,37.18
2023-04-18T01:11:44.605Z,37.18
2023-04-18T01:11:55.602Z,37.18
2023-04-18T01:12:06.589Z,37.18
2023-04-18T01:12:17.591Z,37.18
2023-04-18T01:12:28.573Z,37.18
2023-04-18T01:12:39.579Z,37.07
2023-04-18T01:12:50.564Z,37.07
2023-04-18T01:13:01.558Z,37.07
2023-04-18T01:13:12.651Z,37.18
2023-04-18T01:13:24.623Z,37.07
2023-04-18T01:13:35.617Z,37.07
2023-04-18T01:13:46.608Z,37.18
2023-04-18T01:13:57.597Z,37.07
2023-04-18T01:14:08.590Z,37.07
2023-04-18T01:14:19.584Z,37.18
2023-04-18T01:14:30.577Z,37.18
2023-04-18T01:14:41.557Z,37.18
2023-04-18T01:14:52.553Z,37.18
2023-04-18T01:15:03.651Z,37.27
2023-04-18T01:15:15.599Z,37.27
2023-04-18T01:15:26.630Z,37.18
2023-04-18T01:15:37.655Z,37.18
2023-04-18T01:15:48.646Z,37.27
2023-04-18T01:15:59.670Z,37.27
2023-04-18T01:16:11.710Z,37.27
2023-04-18T01:16:23.680Z,37.18
2023-04-18T01:16:35.589Z,37.18
2023-04-18T01:16:46.597Z,37.18
2023-04-18T01:16:57.591Z,37.18
2023-04-18T01:17:08.588Z,37.18
2023-04-18T01:17:19.610Z,37.18
2023-04-18T01:17:31.612Z,37.18
2023-04-18T01:17:42.607Z,37.18
2023-04-18T01:17:53.696Z,37.18
2023-04-18T01:18:05.585Z,37.18
2023-04-18T01:18:16.578Z,37.18
2023-04-18T01:18:27.592Z,37.18
2023-04-18T01:18:38.584Z,37.18
2023-04-18T01:18:49.568Z,37.18
2023-04-18T01:19:00.544Z,37.18
2023-04-18T01:19:11.523Z,37.27
2023-04-18T01:19:22.599Z,37.18
2023-04-18T01:19:33.581Z,37.27
2023-04-18T01:19:44.552Z,37.27
2023-04-18T01:19:55.565Z,37.27
2023-04-18T01:20:06.560Z,37.27
2023-04-18T01:20:17.532Z,37.18
2023-04-18T01:20:28.620Z,37.18
2023-04-18T01:20:40.559Z,37.18
2023-04-18T01:20:51.551Z,37.18
2023-04-18T01:21:02.528Z,37.18
2023-04-18T01:21:13.594Z,37.18
2023-04-18T01:21:24.587Z,37.18
2023-04-18T01:21:35.562Z,37.18
2023-04-18T01:21:46.548Z,37.18
2023-04-18T01:21:57.532Z,37.18
2023-04-18T01:22:08.639Z,37.18
2023-04-18T01:22:20.580Z,37.18
2023-04-18T01:22:31.566Z,37.18
2023-04-18T01:22:42.540Z,37.07
2023-04-18T01:22:53.616Z,37.07
2023-04-18T01:23:05.574Z,37.07
2023-04-18T01:23:16.564Z,37.18
2023-04-18T01:23:27.572Z,37.18
2023-04-18T01:23:38.558Z,37.18
2023-04-18T01:23:49.529Z,37.18
2023-04-18T01:24:00.603Z,37.18
2023-04-18T01:24:11.901Z,37.18
2023-04-18T01:24:23.603Z,37.18
2023-04-18T01:24:34.581Z,37.18
2023-04-18T01:24:45.572Z,37.18
2023-04-18T01:24:56.553Z,37.18
2023-04-18T01:25:07.550Z,37.18
2023-04-18T01:25:18.527Z,37.18
2023-04-18T01:25:29.605Z,37.07
2023-04-18T01:25:41.555Z,37.18
2023-04-18T01:25:52.533Z,37.18
2023-04-18T01:26:03.615Z,37.18
2023-04-18T01:26:15.564Z,37.18
2023-04-18T01:26:26.540Z,37.18
2023-04-18T01:26:37.527Z,37.18
2023-04-18T01:26:48.612Z,37.18
2023-04-18T01:27:00.562Z,37.18
2023-04-18T01:27:11.538Z,37.18
2023-04-18T01:27:22.530Z,37.18
2023-04-18T01:27:33.519Z,37.18
2023-04-18T01:27:44.601Z,37.18
2023-04-18T01:27:56.561Z,37.18
2023-04-18T01:28:07.536Z,37.18
2023-04-18T01:28:18.525Z,37.18
2023-04-18T01:28:29.596Z,37.18
2023-04-18T01:28:40.580Z,37.18
2023-04-18T01:28:51.568Z,37.18
2023-04-18T01:29:02.548Z,37.18
2023-04-18T01:29:13.529Z,37.07
2023-04-18T01:29:24.644Z,37.07
2023-04-18T01:29:37.870Z,37.18
2023-04-18T01:29:48.577Z,37.07
2023-04-18T01:29:59.595Z,37.18
2023-04-18T01:30:10.590Z,37.18
2023-04-18T01:30:21.575Z,37.18
2023-04-18T01:30:32.558Z,37.18
2023-04-18T01:30:43.542Z,37.07
2023-04-18T01:30:54.660Z,37.18
2023-04-18T01:31:06.658Z,37.18
2023-04-18T01:31:17.648Z,37.18
2023-04-18T01:31:28.591Z,37.18
2023-04-18T01:31:39.619Z,37.18
2023-04-18T01:31:50.575Z,37.18
2023-04-18T01:32:01.582Z,37.18
2023-04-18T01:32:12.565Z,37.18
2023-04-18T01:32:23.553Z,37.18
2023-04-18T01:32:34.564Z,37.18
2023-04-18T01:32:45.558Z,37.18
2023-04-18T01:32:56.597Z,37.18
2023-04-18T01:33:07.576Z,37.18
2023-04-18T01:33:18.579Z,37.18
2023-04-18T01:33:29.574Z,37.18
2023-04-18T01:33:40.686Z,37.18
2023-04-18T01:33:51.558Z,37.18
2023-04-18T01:34:02.521Z,37.18
2023-04-18T01:34:13.823Z,37.18
2023-04-18T01:34:25.574Z,37.18
2023-04-18T01:34:36.553Z,37.18
2023-04-18T01:34:47.583Z,37.18
2023-04-18T01:34:59.580Z,37.18
2023-04-18T01:35:11.548Z,37.18
2023-04-18T01:35:22.533Z,37.18
2023-04-18T01:35:33.617Z,37.18
2023-04-18T01:35:45.570Z,37.18
2023-04-18T01:35:56.538Z,37.18
2023-04-18T01:36:07.524Z,37.18
2023-04-18T01:36:18.610Z,37.18
2023-04-18T01:36:30.549Z,37.18
2023-04-18T01:36:41.545Z,37.18
2023-04-18T01:36:52.621Z,37.18
2023-04-18T01:37:04.579Z,37.18
2023-04-18T01:37:15.553Z,37.18
2023-04-18T01:37:26.538Z,37.18
2023-04-18T01:37:37.528Z,37.18
2023-04-18T01:37:48.610Z,37.18
2023-04-18T01:38:00.599Z,37.18
2023-04-18T01:38:12.590Z,37.18
2023-04-18T01:38:23.563Z,37.18
2023-04-18T01:38:34.545Z,37.18
2023-04-18T01:38:45.620Z,37.18
2023-04-18T01:38:57.562Z,37.18
2023-04-18T01:39:08.530Z,37.18
2023-04-18T01:39:19.530Z,37.18
2023-04-18T01:39:30.618Z,37.18
2023-04-18T01:39:42.571Z,37.18
2023-04-18T01:39:53.548Z,37.18
2023-04-18T01:40:04.528Z,37.18
2023-04-18T01:40:15.621Z,37.07
2023-04-18T01:40:27.558Z,37.18
2023-04-18T01:40:38.580Z,37.18
2023-04-18T01:40:49.558Z,37.27
2023-04-18T01:41:00.540Z,37.27
2023-04-18T01:41:11.621Z,37.18
2023-04-18T01:41:23.566Z,37.18
2023-04-18T01:41:34.548Z,37.18
2023-04-18T01:41:45.527Z,37.18
2023-04-18T01:41:56.622Z,37.18
2023-04-18T01:42:08.571Z,37.18
2023-04-18T01:42:19.539Z,37.18
2023-04-18T01:42:30.615Z,37.07
2023-04-18T01:42:42.555Z,37.18
2023-04-18T01:42:53.527Z,37.07
2023-04-18T01:43:04.597Z,37.07
2023-04-18T01:43:16.547Z,37.07
2023-04-18T01:43:27.535Z,37.07
2023-04-18T01:43:38.612Z,37.07
2023-04-18T01:43:50.554Z,37.07
2023-04-18T01:44:01.608Z,37.07
2023-04-18T01:44:12.762Z,37.07
2023-04-18T01:44:23.628Z,37.07
2023-04-18T01:44:35.590Z,37.07
2023-04-18T01:44:46.558Z,37.07
2023-04-18T01:44:57.542Z,37.07
2023-04-18T01:45:08.618Z,37.07
2023-04-18T01:45:20.560Z,37.07
2023-04-18T01:45:31.560Z,37.07
2023-04-18T01:45:42.528Z,37.07
2023-04-18T01:45:53.609Z,37.07
2023-04-18T01:46:05.595Z,37.07
2023-04-18T01:46:17.601Z,37.07
2023-04-18T01:46:29.614Z,37.07
2023-04-18T01:46:41.626Z,37.07
2023-04-18T01:46:53.675Z,37.07
2023-04-18T01:47:05.592Z,37.07
2023-04-18T01:47:16.601Z,37.07
2023-04-18T01:47:28.613Z,37.07
2023-04-18T01:47:40.580Z,37.07
2023-04-18T01:47:51.580Z,37.07
2023-04-18T01:48:03.590Z,37.07
2023-04-18T01:48:14.566Z,37.07
2023-04-18T01:48:25.542Z,37.07
2023-04-18T01:48:36.626Z,37.18
2023-04-18T01:48:48.559Z,37.18
2023-04-18T01:48:59.531Z,37.07
2023-04-18T01:49:10.605Z,37.07
2023-04-18T01:49:22.557Z,37.18
2023-04-18T01:49:33.547Z,37.07
2023-04-18T01:49:44.508Z,37.07
2023-04-18T01:49:55.601Z,37.07
2023-04-18T01:50:07.556Z,37.07
2023-04-18T01:50:18.580Z,37.07
2023-04-18T01:50:29.567Z,37.07
2023-04-18T01:50:40.550Z,37.07
2023-04-18T01:50:51.533Z,37.07
2023-04-18T01:51:02.607Z,37.07
2023-04-18T01:51:13.582Z,37.07
2023-04-18T01:51:24.578Z,37.18
2023-04-18T01:51:35.570Z,37.07
2023-04-18T01:51:46.553Z,37.07
2023-04-18T01:51:57.538Z,37.07
2023-04-18T01:52:08.632Z,37.07
2023-04-18T01:52:20.589Z,37.07
2023-04-18T01:52:31.574Z,37.07
2023-04-18T01:52:42.556Z,37.07
2023-04-18T01:52:53.537Z,37.07
2023-04-18T01:53:04.619Z,37.07
2023-04-18T01:53:16.555Z,37.07
2023-04-18T01:53:27.526Z,37.07
2023-04-18T01:53:38.528Z,37.07
2023-04-18T01:53:49.615Z,37.07
2023-04-18T01:54:01.582Z,37.07
2023-04-18T01:54:12.860Z,37.07
2023-04-18T01:54:23.561Z,37.07
2023-04-18T01:54:34.553Z,37.18
2023-04-18T01:54:45.533Z,37.18
2023-04-18T01:54:56.539Z,37.18
2023-04-18T01:55:07.618Z,37.19
2023-04-18T01:55:19.578Z,37.18
2023-04-18T01:55:30.554Z,37.18
2023-04-18T01:55:41.538Z,37.18
2023-04-18T01:55:52.524Z,37.18
2023-04-18T01:56:03.619Z,37.18
2023-04-18T01:56:15.584Z,37.18
2023-04-18T01:56:26.577Z,37.07
2023-04-18T01:56:37.571Z,37.07
2023-04-18T01:56:48.551Z,37.18
2023-04-18T01:56:59.535Z,37.18
2023-04-18T01:57:10.613Z,37.18
2023-04-18T01:57:22.563Z,37.19
2023-04-18T01:57:33.532Z,37.18
2023-04-18T01:57:44.523Z,37.18
2023-04-18T01:57:55.605Z,37.18
2023-04-18T01:58:07.561Z,37.18
2023-04-18T01:58:18.541Z,37.18
2023-04-18T01:58:29.556Z,37.19
2023-04-18T01:58:40.534Z,37.18
2023-04-18T01:58:51.652Z,37.18
2023-04-18T01:59:03.595Z,37.27
2023-04-18T01:59:14.583Z,37.19
2023-04-18T01:59:25.580Z,37.18
2023-04-18T01:59:36.571Z,37.18
2023-04-18T01:59:47.586Z,37.07
2023-04-18T01:59:58.588Z,37.07
2023-04-18T02:00:09.570Z,37.07
2023-04-18T02:00:20.545Z,37.09
2023-04-18T02:00:31.555Z,37.07
2023-04-18T02:00:42.613Z,37.07
2023-04-18T02:00:53.681Z,37.09
2023-04-18T02:01:05.560Z,37.07
2023-04-18T02:01:16.615Z,37.07
2023-04-18T02:01:28.585Z,37.07
2023-04-18T02:01:39.564Z,37.07
2023-04-18T02:01:50.582Z,37.07
2023-04-18T02:02:01.652Z,37.09
2023-04-18T02:02:13.718Z,37.07
2023-04-18T02:02:25.739Z,37.09
2023-04-18T02:02:37.745Z,37.07
2023-04-18T02:02:48.675Z,37.18
2023-04-18T02:03:00.693Z,37.18
2023-04-18T02:03:12.775Z,37.18
2023-04-18T02:03:23.724Z,37.18
2023-04-18T02:03:35.778Z,37.29
2023-04-18T02:03:47.740Z,37.18
2023-04-18T02:03:59.763Z,37.19
2023-04-18T02:04:10.594Z,37.18
2023-04-18T02:04:22.592Z,37.18
2023-04-18T02:04:34.563Z,37.19
2023-04-18T02:04:45.517Z,37.19
2023-04-18T02:04:56.527Z,37.19
2023-04-18T02:05:07.612Z,37.18
2023-04-18T02:05:19.558Z,37.07
2023-04-18T02:05:30.534Z,37.07
2023-04-18T02:05:41.609Z,37.18
2023-04-18T02:05:53.568Z,37.19
2023-04-18T02:06:04.551Z,37.18
2023-04-18T02:06:15.544Z,37.18
2023-04-18T02:06:26.546Z,37.09
2023-04-18T02:06:37.534Z,37.09
2023-04-18T02:06:48.610Z,37.07
2023-04-18T02:06:59.613Z,37.18
2023-04-18T02:07:11.558Z,37.19
2023-04-18T02:07:22.560Z,37.18
2023-04-18T02:07:33.536Z,37.18
2023-04-18T02:07:44.609Z,37.18
2023-04-18T02:07:56.555Z,37.18
2023-04-18T02:08:07.529Z,37.27
2023-04-18T02:08:18.615Z,37.27
2023-04-18T02:08:30.564Z,37.29
2023-04-18T02:08:41.543Z,37.19
2023-04-18T02:08:52.534Z,37.18
2023-04-18T02:09:03.617Z,37.19
2023-04-18T02:09:15.558Z,37.19
2023-04-18T02:09:26.539Z,37.19
2023-04-18T02:09:37.626Z,37.19
2023-04-18T02:09:49.595Z,37.18
2023-04-18T02:10:00.571Z,37.19
2023-04-18T02:10:11.552Z,37.19
2023-04-18T02:10:22.530Z,37.19
2023-04-18T02:10:33.604Z,37.18
2023-04-18T02:10:44.583Z,37.18
2023-04-18T02:10:55.571Z,37.18
2023-04-18T02:11:06.546Z,37.18
2023-04-18T02:11:17.529Z,37.19
2023-04-18T02:11:28.614Z,37.09
2023-04-18T02:11:40.555Z,37.09
2023-04-18T02:11:51.552Z,37.19
2023-04-18T02:12:02.637Z,37.19
2023-04-18T02:12:14.572Z,37.07
2023-04-18T02:12:25.554Z,37.19
2023-04-18T02:12:36.526Z,37.09
2023-04-18T02:12:47.604Z,37.19
2023-04-18T02:12:59.556Z,37.18
2023-04-18T02:13:10.569Z,37.19
2023-04-18T02:13:21.545Z,37.19
2023-04-18T02:13:32.624Z,37.09
2023-04-18T02:13:44.578Z,37.19
2023-04-18T02:13:55.559Z,37.19
2023-04-18T02:14:06.545Z,37.09
2023-04-18T02:14:17.621Z,37.09
2023-04-18T02:14:29.560Z,37.19
2023-04-18T02:14:40.596Z,37.19
2023-04-18T02:14:51.574Z,37.19
2023-04-18T02:15:02.564Z,37.19
2023-04-18T02:15:13.540Z,37.19
2023-04-18T02:15:24.606Z,37.19
2023-04-18T02:15:36.573Z,37.19
2023-04-18T02:15:47.550Z,37.19
2023-04-18T02:15:58.590Z,37.19
2023-04-18T02:16:09.625Z,37.19
2023-04-18T02:16:21.618Z,37.19
2023-04-18T02:16:32.572Z,37.19
2023-04-18T02:16:43.562Z,37.19
2023-04-18T02:16:54.613Z,37.19
2023-04-18T02:17:06.583Z,37.19
2023-04-18T02:17:17.571Z,37.29
2023-04-18T02:17:28.571Z,37.40
2023-04-18T02:17:39.567Z,37.40
2023-04-18T02:17:50.580Z,37.29
2023-04-18T02:18:01.595Z,37.19
2023-04-18T02:18:13.570Z,37.19
2023-04-18T02:18:24.569Z,37.19
2023-04-18T02:18:35.559Z,37.19
2023-04-18T02:18:46.534Z,37.19
2023-04-18T02:18:57.619Z,37.19
2023-04-18T02:19:09.557Z,37.19
2023-04-18T02:19:20.537Z,37.19
2023-04-18T02:19:31.622Z,37.19
2023-04-18T02:19:43.579Z,37.29
2023-04-18T02:19:54.564Z,37.29
2023-04-18T02:20:05.562Z,37.29
2023-04-18T02:20:16.535Z,37.29
2023-04-18T02:20:27.625Z,37.19
2023-04-18T02:20:39.563Z,37.19
2023-04-18T02:20:50.540Z,37.19
2023-04-18T02:21:01.615Z,37.19
2023-04-18T02:21:13.569Z,37.19
2023-04-18T02:21:24.572Z,37.29
2023-04-18T02:21:35.570Z,37.29
2023-04-18T02:21:46.551Z,37.29
2023-04-18T02:21:57.527Z,37.29
2023-04-18T02:22:08.614Z,37.29
2023-04-18T02:22:20.553Z,37.19
2023-04-18T02:22:31.564Z,37.19
2023-04-18T02:22:42.570Z,37.19
2023-04-18T02:22:53.555Z,37.19
2023-04-18T02:23:04.554Z,37.19
2023-04-18T02:23:15.534Z,37.18
2023-04-18T02:23:26.612Z,37.19
2023-04-18T02:23:38.556Z,37.19
2023-04-18T02:23:49.556Z,37.19
2023-04-18T02:24:00.562Z,37.19
2023-04-18T02:24:11.875Z,37.19
2023-04-18T02:24:22.615Z,37.19